Time;durP1;ratioP1;P1;durP2;ratioP2;P2;SDS_P1;SDS_P2;PMS_P1;PMS_P2;Temp;Humidity;BMP_temperature;BMP_pressure;BME280_temperature;BME280_humidity;BME280_pressure;Samples;Min_cycle;Max_cycle;Signal;HPM_P1;HPM_P2
2022/10/07 00:01:54;;;;;;;24.37;11.90;;;;;;;-141.97;59.40;47547.91;4972900;28;20230;-84
2022/10/07 00:04:20;;;;;;;26.03;12.37;;;;;;;-141.97;60.23;47501.78;4972751;28;20172;-84
2022/10/07 00:06:45;;;;;;;27.20;11.70;;;;;;;-141.97;60.15;47524.84;4972722;28;20645;-84
2022/10/07 00:09:11;;;;;;;22.90;11.83;;;;;;;-141.97;60.12;47517.16;4975285;28;20196;-82
2022/10/07 00:11:36;;;;;;;20.83;11.40;;;;;;;-141.97;60.45;47553.69;4986206;28;20278;-81
2022/10/07 00:14:06;;;;;;;24.60;12.03;;;;;;;-141.97;61.60;47532.53;4990604;28;20191;-83
2022/10/07 00:16:37;;;;;;;25.73;10.70;;;;;;;-141.97;63.50;47544.06;4994434;28;20144;-84
2022/10/07 00:19:06;;;;;;;25.17;11.67;;;;;;;-141.97;63.89;47534.44;4990578;28;20269;-86
2022/10/07 00:21:33;;;;;;;21.50;11.30;;;;;;;-141.97;63.46;47551.75;4972904;28;20179;-85
2022/10/07 00:23:59;;;;;;;21.73;11.07;;;;;;;-141.97;64.33;47472.94;4972500;28;20254;-85
2022/10/07 00:26:27;;;;;;;44.23;21.40;;;;;;;-141.97;63.39;47557.53;4972664;28;20207;-84
2022/10/07 00:28:53;;;;;;;33.10;16.83;;;;;;;-141.97;62.63;47503.69;4971343;28;20210;-85
2022/10/07 00:31:21;;;;;;;25.93;14.33;;;;;;;-141.97;61.97;47534.44;4971127;28;20176;-84
2022/10/07 00:33:47;;;;;;;33.83;14.40;;;;;;;-141.97;62.75;47526.75;4972425;28;20180;-84
2022/10/07 00:36:17;;;;;;;26.07;12.77;;;;;;;-141.97;62.58;47511.38;4972413;28;20175;-83
2022/10/07 00:38:43;;;;;;;25.77;13.10;;;;;;;-141.97;63.12;47507.53;4972417;28;20160;-84
2022/10/07 00:41:16;;;;;;;21.70;11.97;;;;;;;-141.97;63.49;47542.16;4972463;28;20171;-83
2022/10/07 00:43:41;;;;;;;21.30;11.03;;;;;;;-141.97;63.97;47553.69;4972584;28;20175;-83
2022/10/07 00:46:31;;;;;;;27.97;10.73;;;;;;;-141.97;64.57;47569.06;4972223;28;20172;-83
2022/10/07 00:49:01;;;;;;;17.53;10.20;;;;;;;-141.97;64.57;47503.69;4931484;29;20760;-85
2022/10/07 00:51:30;;;;;;;21.67;10.47;;;;;;;-141.97;64.80;47553.69;4931690;29;21013;-84
2022/10/07 00:53:56;;;;;;;18.33;10.40;;;;;;;-141.97;65.35;47532.53;4932873;29;20221;-84
2022/10/07 00:56:24;;;;;;;17.47;10.43;;;;;;;-141.97;65.69;47667.06;4935155;29;20658;-83
2022/10/07 00:58:50;;;;;;;21.97;10.90;;;;;;;-141.97;65.82;47549.84;4935244;29;20173;-84
2022/10/07 01:01:18;;;;;;;22.93;10.83;;;;;;;-141.97;65.41;47563.28;4935182;29;20189;-85
2022/10/07 01:03:46;;;;;;;24.17;10.30;;;;;;;-141.97;67.93;47553.69;4935288;29;20256;-84
2022/10/07 01:06:12;;;;;;;18.70;10.87;;;;;;;-141.97;66.86;47522.91;4935131;29;20193;-85
2022/10/07 01:08:38;;;;;;;20.80;10.20;;;;;;;-141.97;67.87;47546.00;4935381;29;20599;-84
2022/10/07 01:11:37;;;;;;;24.27;10.87;;;;;;;-141.97;67.91;47522.91;4935276;29;20583;-85
2022/10/07 01:14:02;;;;;;;17.90;9.67;;;;;;;-141.97;67.91;47503.69;4934758;29;20193;-85
2022/10/07 01:17:00;;;;;;;21.07;10.50;;;;;;;-141.97;67.90;47557.53;4935257;29;20240;-84
2022/10/07 01:19:49;;;;;;;19.93;10.00;;;;;;;-141.97;67.59;47522.91;4934847;29;20200;-83
2022/10/07 01:22:37;;;;;;;22.10;9.83;;;;;;;-141.97;68.53;47453.72;4934610;29;20646;-84
2022/10/07 01:25:39;;;;;;;22.33;10.20;;;;;;;-141.97;70.68;47544.06;4938369;28;20650;-84
2022/10/07 01:28:11;;;;;;;21.70;10.27;;;;;;;-141.97;71.48;47522.91;4973651;28;20216;-84
2022/10/07 01:30:41;;;;;;;18.90;10.57;;;;;;;-141.97;71.67;47534.44;4975334;28;20176;-83
2022/10/07 01:33:13;;;;;;;23.00;11.03;;;;;;;-141.97;73.30;47536.38;4975473;28;20656;-83
2022/10/07 01:35:41;;;;;;;21.47;11.17;;;;;;;-141.97;73.56;47534.44;4974231;28;20235;-83
2022/10/07 01:38:09;;;;;;;24.43;12.23;;;;;;;-141.97;73.90;47551.75;4986928;28;20168;-83
2022/10/07 01:40:41;;;;;;;27.00;13.03;;;;;;;-141.97;74.47;47522.91;4976121;28;20196;-84
2022/10/07 01:43:07;;;;;;;23.50;11.73;;;;;;;-141.97;74.47;47374.94;4975153;28;20411;-84
2022/10/07 01:45:37;;;;;;;27.63;12.40;;;;;;;-141.97;74.52;47526.75;4974978;28;20667;-84
2022/10/07 01:48:03;;;;;;;31.27;15.57;;;;;;;-141.97;72.75;47530.59;4974916;28;20207;-84
2022/10/07 01:50:30;;;;;;;33.40;14.70;;;;;;;-141.97;72.70;47536.38;4974749;28;20179;-84
2022/10/07 01:53:02;;;;;;;24.43;12.27;;;;;;;-141.97;73.04;47490.25;4975145;28;20172;-84
2022/10/07 01:55:40;;;;;;;25.23;12.17;;;;;;;-141.97;74.96;47526.75;4974666;28;20739;-84
2022/10/07 01:58:37;;;;;;;24.67;13.70;;;;;;;-141.97;75.31;47532.53;4974701;28;20900;-83
2022/10/07 02:01:07;;;;;;;31.87;16.23;;;;;;;-141.97;74.05;47538.28;4974394;28;20412;-83
2022/10/07 02:04:13;;;;;;;30.10;14.70;;;;;;;-141.97;73.30;47559.44;4974532;28;20183;-84
2022/10/07 02:06:50;;;;;;;24.90;13.13;;;;;;;-141.97;72.13;47532.53;4933116;29;20733;-83
2022/10/07 02:09:34;;;;;;;37.20;17.27;;;;;;;-141.97;72.06;47496.00;4933996;29;20217;-84
2022/10/07 02:12:16;;;;;;;27.23;13.33;;;;;;;-141.97;73.04;47509.47;4933863;29;20656;-83
2022/10/07 02:14:49;;;;;;;26.03;12.97;;;;;;;-141.97;73.34;47534.44;4918361;29;20193;-85
2022/10/07 02:17:19;;;;;;;24.07;13.50;;;;;;;-141.97;73.47;47557.53;4933944;29;20444;-84
2022/10/07 02:19:48;;;;;;;24.03;13.17;;;;;;;-141.97;73.32;47511.38;4933965;29;20422;-85
2022/10/07 02:22:17;;;;;;;22.20;11.83;;;;;;;-141.97;72.57;47567.13;4934009;29;20459;-84
2022/10/07 02:24:46;;;;;;;22.13;12.73;;;;;;;-141.97;73.07;47519.06;4933869;29;20428;-84
2022/10/07 02:27:15;;;;;;;22.30;12.73;;;;;;;-141.97;73.07;47486.41;4933507;29;20432;-84
2022/10/07 02:29:41;;;;;;;25.27;12.20;;;;;;;-141.97;71.69;47569.06;4934667;29;20464;-85
2022/10/07 02:32:12;;;;;;;26.03;13.83;;;;;;;-141.97;71.28;47553.69;4934094;29;20421;-85
2022/10/07 02:34:42;;;;;;;29.07;17.73;;;;;;;-141.97;70.70;47547.91;4933435;29;20456;-84
2022/10/07 02:37:16;;;;;;;27.13;15.20;;;;;;;-141.97;71.61;47534.44;4933325;29;20456;-83
2022/10/07 02:39:44;;;;;;;21.43;11.97;;;;;;;-141.97;71.55;47565.22;4940059;28;20419;-84
2022/10/07 02:42:14;;;;;;;19.20;10.83;;;;;;;-141.97;72.28;47546.00;4974027;28;20789;-83
2022/10/07 02:45:08;;;;;;;22.53;11.80;;;;;;;-141.97;72.79;47534.44;4974019;28;20411;-84
2022/10/07 02:47:56;;;;;;;21.90;12.10;;;;;;;-141.97;72.73;47553.69;4974057;28;20415;-84
2022/10/07 02:50:26;;;;;;;20.93;11.43;;;;;;;-141.97;72.57;47561.38;4973656;28;20420;-84
2022/10/07 02:52:54;;;;;;;24.00;12.47;;;;;;;-141.97;72.75;47649.78;4973642;28;20422;-85
2022/10/07 02:55:24;;;;;;;26.93;15.60;;;;;;;-141.97;73.00;47507.53;4972234;28;20636;-85
2022/10/07 02:57:56;;;;;;;22.63;10.97;;;;;;;-141.97;72.98;47538.28;4973881;28;20924;-85
2022/10/07 03:00:22;;;;;;;23.00;10.90;;;;;;;-141.97;72.91;47549.84;4973719;28;20451;-85
2022/10/07 03:02:47;;;;;;;25.23;12.70;;;;;;;-141.97;72.21;47534.44;4973946;28;20946;-85
2022/10/07 03:05:18;;;;;;;28.73;15.07;;;;;;;-141.97;71.78;47544.06;4973827;28;20226;-85
2022/10/07 03:07:44;;;;;;;19.13;10.40;;;;;;;-141.97;71.01;47519.06;4973533;28;20174;-84
2022/10/07 03:10:09;;;;;;;24.90;12.00;;;;;;;-141.97;70.70;47526.75;4973948;28;20443;-83
2022/10/07 03:12:35;;;;;;;22.13;11.40;;;;;;;-141.97;70.35;47672.84;4983455;28;20172;-81
2022/10/07 03:15:00;;;;;;;23.30;11.27;;;;;;;-141.97;70.31;47532.53;4987100;28;20644;-82
2022/10/07 03:17:26;;;;;;;19.70;12.17;;;;;;;-141.97;69.95;47517.16;4985888;28;20250;-82
2022/10/07 03:19:51;;;;;;;21.63;11.97;;;;;;;-141.97;70.26;47559.44;4984768;28;20292;-84
2022/10/07 03:22:16;;;;;;;19.10;10.37;;;;;;;-141.97;70.82;47522.91;4974008;28;20267;-84
2022/10/07 03:24:42;;;;;;;18.03;9.53;;;;;;;-141.97;70.46;47578.66;4972901;28;20199;-84
2022/10/07 03:27:07;;;;;;;19.27;10.00;;;;;;;-141.97;70.07;47461.41;4972914;28;20327;-84
2022/10/07 03:29:36;;;;;;;14.07;9.00;;;;;;;-141.97;70.01;47620.94;4972895;28;20203;-84
2022/10/07 03:32:02;;;;;;;15.53;8.60;;;;;;;-141.97;69.70;47553.69;4973272;28;20199;-84
2022/10/07 03:34:27;;;;;;;18.43;8.93;;;;;;;-141.97;69.49;47561.38;4977497;28;20255;-83
2022/10/07 03:36:54;;;;;;;17.97;9.07;;;;;;;-141.97;69.02;47538.28;4977052;28;20629;-84
2022/10/07 03:39:19;;;;;;;20.00;9.30;;;;;;;-141.97;69.36;47536.38;4973711;28;20174;-86
2022/10/07 03:41:47;;;;;;;18.47;8.73;;;;;;;-141.97;68.93;47538.28;4971909;28;20560;-86
2022/10/07 03:44:13;;;;;;;15.43;8.20;;;;;;;-141.97;68.63;47515.22;4973081;28;20198;-84
2022/10/07 03:46:39;;;;;;;15.73;8.23;;;;;;;-141.97;69.00;47524.84;4972825;28;20204;-85
2022/10/07 03:49:04;;;;;;;16.33;8.03;;;;;;;-141.97;68.95;47536.38;4972809;28;20207;-85
2022/10/07 03:51:30;;;;;;;17.63;7.87;;;;;;;-141.97;68.59;47551.75;4972782;28;20177;-87
2022/10/07 03:53:57;;;;;;;16.10;7.87;;;;;;;-141.97;68.21;47634.41;4987775;28;20282;-85
2022/10/07 03:56:22;;;;;;;13.60;7.60;;;;;;;-141.97;67.84;47542.16;4971742;28;20570;-84
2022/10/07 03:58:48;;;;;;;15.13;7.87;;;;;;;-141.97;67.57;47526.75;4971455;28;20187;-84
2022/10/07 04:01:16;;;;;;;16.53;7.33;;;;;;;-141.97;68.04;47569.06;4972735;28;20641;-85
2022/10/07 04:03:42;;;;;;;15.13;7.83;;;;;;;-141.97;67.75;47655.53;4971460;28;20176;-86
2022/10/07 04:06:07;;;;;;;19.40;7.30;;;;;;;-141.97;68.02;47492.16;4972634;28;20175;-85
2022/10/07 04:08:33;;;;;;;12.67;7.30;;;;;;;-141.97;67.52;47521.00;4972535;28;20226;-84
2022/10/07 04:11:01;;;;;;;14.53;7.50;;;;;;;-141.97;67.23;47524.84;4972476;28;20231;-85
2022/10/07 04:13:27;;;;;;;21.30;10.60;;;;;;;-141.97;67.34;47499.84;4972684;28;20168;-86
2022/10/07 04:15:53;;;;;;;15.87;7.43;;;;;;;-141.97;67.41;47482.56;4973134;28;20168;-84
2022/10/07 04:18:18;;;;;;;12.57;6.67;;;;;;;-141.97;68.11;47657.47;4972960;28;20167;-84
2022/10/07 04:20:43;;;;;;;11.73;6.47;;;;;;;-141.97;68.20;47538.28;4972784;28;20565;-85
2022/10/07 04:23:09;;;;;;;13.90;6.83;;;;;;;-141.97;69.56;47555.59;4972744;28;20176;-84
2022/10/07 04:25:35;;;;;;;17.30;7.50;;;;;;;-141.97;70.00;47569.06;4972518;28;20167;-85
2022/10/07 04:28:02;;;;;;;16.53;7.47;;;;;;;-141.97;70.44;47582.50;4972339;28;20558;-85
2022/10/07 04:30:33;;;;;;;13.33;7.37;;;;;;;-141.97;70.97;47476.78;4991937;28;20653;-85
2022/10/07 04:33:00;;;;;;;14.33;6.93;;;;;;;-141.97;71.16;47534.44;4976496;28;20183;-86
2022/10/07 04:35:25;;;;;;;13.67;7.43;;;;;;;-141.97;71.35;47615.19;4976518;28;20173;-85
2022/10/07 04:37:52;;;;;;;17.70;7.63;;;;;;;-141.97;71.17;47476.78;4976293;28;20426;-85
2022/10/07 04:40:19;;;;;;;17.53;8.20;;;;;;;-141.97;72.13;47540.22;4975559;28;20229;-85
2022/10/07 04:45:34;;;;;;;18.70;8.93;;;;;;;-141.97;72.55;47511.38;4977037;28;20792;-84
2022/10/07 04:48:00;;;;;;;16.10;8.23;;;;;;;-141.97;71.57;47551.75;4976400;28;20404;-84
2022/10/07 04:50:26;;;;;;;13.87;7.87;;;;;;;-141.97;72.15;47503.69;4976478;28;20847;-84
2022/10/07 04:52:52;;;;;;;15.77;7.87;;;;;;;-141.97;71.28;47432.59;4961186;28;20432;-85
2022/10/07 04:55:17;;;;;;;15.87;7.60;;;;;;;-141.97;71.14;47557.53;4956592;29;20235;-84
2022/10/07 04:57:43;;;;;;;16.10;9.03;;;;;;;-141.97;71.52;47507.53;4956882;29;20177;-84
2022/10/07 05:00:09;;;;;;;29.50;16.43;;;;;;;-141.97;71.22;47522.91;4971432;28;20179;-84
2022/10/07 05:02:35;;;;;;;18.53;10.17;;;;;;;-141.97;71.45;47528.69;4956765;29;20641;-84
2022/10/07 05:05:00;;;;;;;19.90;9.90;;;;;;;-141.97;71.48;47509.47;4958464;29;20419;-85
2022/10/07 05:07:26;;;;;;;13.60;7.30;;;;;;;-141.97;70.91;47494.09;4959310;29;20177;-85
2022/10/07 05:09:51;;;;;;;17.53;7.70;;;;;;;-141.97;70.24;47538.28;4966528;29;20256;-85
2022/10/07 05:12:17;;;;;;;15.83;7.60;;;;;;;-141.97;69.48;47565.22;4958997;29;20188;-83
2022/10/07 05:14:44;;;;;;;15.43;7.53;;;;;;;-141.97;69.40;47476.78;4977058;29;20180;-83
2022/10/07 05:17:10;;;;;;;20.67;9.63;;;;;;;-141.97;69.14;47592.13;4978877;29;20196;-83
2022/10/07 05:19:36;;;;;;;23.00;11.50;;;;;;;-141.97;68.65;47569.06;4980108;29;20157;-84
2022/10/07 05:22:04;;;;;;;19.40;9.87;;;;;;;-141.97;68.79;47563.28;4988329;28;20240;-84
2022/10/07 05:24:30;;;;;;;15.10;8.10;;;;;;;-141.97;69.58;47521.00;4993484;28;20251;-83
2022/10/07 05:26:55;;;;;;;15.33;7.73;;;;;;;-141.97;69.18;47538.28;4987817;28;20181;-83
2022/10/07 05:29:21;;;;;;;14.77;7.17;;;;;;;-141.97;69.37;47563.28;4974519;28;20212;-83
2022/10/07 05:31:47;;;;;;;16.67;7.53;;;;;;;-141.97;69.54;47501.78;4975269;28;20180;-84
2022/10/07 05:34:14;;;;;;;14.33;7.10;;;;;;;-141.97;69.82;47546.00;4967090;28;20183;-83
2022/10/07 05:36:40;;;;;;;17.07;6.37;;;;;;;-141.97;69.34;47526.75;4954070;28;20713;-85
2022/10/07 05:39:05;;;;;;;12.03;7.17;;;;;;;-141.97;68.85;47482.56;4961316;28;20178;-83
2022/10/07 05:41:31;;;;;;;12.67;7.00;;;;;;;-141.97;69.01;47538.28;4975237;28;20298;-85
2022/10/07 05:43:59;;;;;;;12.93;7.00;;;;;;;-141.97;69.11;47542.16;4957500;28;20276;-84
2022/10/07 05:46:24;;;;;;;17.43;6.47;;;;;;;-141.97;69.03;47494.09;4968203;28;20275;-84
2022/10/07 05:48:51;;;;;;;14.83;7.07;;;;;;;-141.97;68.94;47547.91;4951966;29;20699;-84
2022/10/07 05:51:18;;;;;;;15.90;6.77;;;;;;;-141.97;69.31;47580.59;4953697;28;20185;-84
2022/10/07 05:53:45;;;;;;;14.40;6.80;;;;;;;-141.97;68.90;47572.91;4953192;28;20208;-85
2022/10/07 05:56:14;;;;;;;13.47;7.90;;;;;;;-141.97;68.54;47555.59;4954176;28;20189;-84
2022/10/07 05:58:40;;;;;;;19.37;11.67;;;;;;;-141.97;68.11;47540.22;4954081;28;20267;-84
2022/10/07 06:01:08;;;;;;;20.87;11.33;;;;;;;-141.97;67.46;47553.69;4954500;28;20279;-85
2022/10/07 06:03:33;;;;;;;19.93;9.37;;;;;;;-141.97;66.52;47530.59;4962243;28;20286;-84
2022/10/07 06:06:00;;;;;;;16.63;7.87;;;;;;;-141.97;65.82;47534.44;4972648;28;20188;-85
2022/10/07 06:08:26;;;;;;;13.70;6.50;;;;;;;-141.97;64.68;47532.53;4974370;28;20235;-85
2022/10/07 06:13:35;;;;;;;12.50;6.57;;;;;;;-141.97;64.53;47559.44;4972574;28;20194;-83
2022/10/07 06:16:06;;;;;;;11.37;5.77;;;;;;;-141.97;63.53;47561.38;4963631;28;20185;-84
2022/10/07 06:18:34;;;;;;;36.27;6.90;;;;;;;-141.97;63.01;47505.63;4953874;28;20177;-84
2022/10/07 06:21:00;;;;;;;11.33;4.30;;;;;;;-141.97;63.46;47555.59;4951387;28;20307;-84
2022/10/07 06:23:27;;;;;;;8.60;4.23;;;;;;;-141.97;63.01;47540.22;4955434;28;20220;-84
2022/10/07 06:25:57;;;;;;;7.20;4.03;;;;;;;-141.97;62.28;47569.06;4953330;28;20665;-84
2022/10/07 06:28:23;;;;;;;7.57;3.90;;;;;;;-141.97;61.00;47553.69;4952520;28;20557;-84
2022/10/07 06:30:49;;;;;;;7.33;3.60;;;;;;;-141.97;59.90;47547.91;4952476;28;20243;-84
2022/10/07 06:33:16;;;;;;;7.40;3.63;;;;;;;-141.97;58.93;47559.44;4952292;28;20184;-84
2022/10/07 06:35:42;;;;;;;6.43;3.47;;;;;;;-141.97;57.95;47540.22;4955171;28;20184;-85
2022/10/07 06:38:08;;;;;;;8.10;4.03;;;;;;;-141.97;57.21;47584.44;4952854;28;20293;-85
2022/10/07 06:40:33;;;;;;;10.40;5.63;;;;;;;-141.97;55.96;47517.16;4954367;28;20185;-84
2022/10/07 06:42:59;;;;;;;8.07;3.90;;;;;;;-141.97;53.91;47538.28;4952858;28;20191;-84
2022/10/07 06:45:24;;;;;;;6.37;3.77;;;;;;;-141.97;53.35;47476.78;4931827;28;20220;-84
2022/10/07 06:47:51;;;;;;;5.63;3.50;;;;;;;-141.97;53.23;47511.38;4932315;29;20657;-83
2022/10/07 06:50:17;;;;;;;5.57;3.20;;;;;;;-141.97;52.55;47561.38;4930814;29;20223;-84
2022/10/07 06:52:42;;;;;;;5.70;3.20;;;;;;;-141.97;52.75;47530.59;4932251;29;20272;-84
2022/10/07 06:55:08;;;;;;;4.03;2.90;;;;;;;-141.97;51.74;47492.16;4931660;29;20597;-84
2022/10/07 06:57:34;;;;;;;4.43;2.90;;;;;;;-141.97;51.88;47509.47;4932281;29;20316;-84
2022/10/07 07:00:00;;;;;;;6.73;3.77;;;;;;;-141.97;50.98;47576.75;4932393;29;20188;-83
2022/10/07 07:02:26;;;;;;;6.33;3.73;;;;;;;-141.97;49.74;47505.63;4932951;29;20189;-84
2022/10/07 07:04:53;;;;;;;6.37;3.50;;;;;;;-141.97;48.66;47530.59;4931774;29;20275;-85
2022/10/07 07:07:20;;;;;;;7.53;4.37;;;;;;;-141.97;47.60;47509.47;4932298;29;20200;-84
2022/10/07 07:09:46;;;;;;;7.97;3.80;;;;;;;-141.97;47.38;47534.44;4932316;29;20733;-85
2022/10/07 07:12:11;;;;;;;7.00;4.07;;;;;;;-141.97;46.43;47482.56;4932506;29;20186;-85
2022/10/07 07:14:36;;;;;;;7.50;3.20;;;;;;;-141.97;46.15;47613.25;4931664;29;20182;-85
2022/10/07 07:17:02;;;;;;;6.30;3.80;;;;;;;-141.97;45.95;47499.84;4949603;29;20211;-86
2022/10/07 07:19:28;;;;;;;6.87;4.10;;;;;;;-141.97;44.50;47544.06;4949394;28;20262;-86
2022/10/07 07:21:53;;;;;;;7.13;4.40;;;;;;;-141.97;43.76;47461.41;4952830;28;20228;-85
2022/10/07 07:24:19;;;;;;;6.67;4.33;;;;;;;-141.97;43.26;47488.31;4964174;28;20554;-86
2022/10/07 07:26:45;;;;;;;5.90;3.90;;;;;;;-141.97;43.04;47538.28;4951066;28;20185;-86
2022/10/07 07:29:11;;;;;;;5.27;3.40;;;;;;;-141.97;43.87;47496.00;4952899;28;20707;-86
2022/10/07 07:31:38;;;;;;;6.40;3.70;;;;;;;-141.97;43.18;47676.69;4963669;28;20207;-85
2022/10/07 07:34:07;;;;;;;5.47;3.50;;;;;;;-141.97;42.10;47655.53;4952431;28;20184;-85
2022/10/07 07:36:35;;;;;;;6.93;3.33;;;;;;;-141.97;42.22;47599.81;4949448;29;20188;-85
2022/10/07 07:39:04;;;;;;;4.97;3.40;;;;;;;-141.97;41.82;47655.53;4951318;28;20193;-85
2022/10/07 07:41:33;;;;;;;8.43;3.53;;;;;;;-141.97;41.77;47567.13;4950530;28;20185;-86
2022/10/07 07:44:01;;;;;;;7.57;3.30;;;;;;;-141.97;41.58;47480.63;4950670;28;20629;-85
2022/10/07 07:46:31;;;;;;;5.73;3.27;;;;;;;-141.97;41.30;47465.25;4950178;28;20195;-85
2022/10/07 07:48:57;;;;;;;6.63;3.80;;;;;;;-141.97;41.09;47530.59;4950540;28;20219;-84
2022/10/07 07:51:23;;;;;;;5.23;3.43;;;;;;;-141.97;40.75;47674.78;4950051;28;20177;-84
2022/10/07 07:53:49;;;;;;;5.13;3.10;;;;;;;-141.97;39.92;47469.09;4950845;28;20243;-85
2022/10/07 07:56:15;;;;;;;5.03;3.40;;;;;;;-141.97;39.56;47472.94;4950029;28;20189;-85
2022/10/07 07:58:41;;;;;;;14.10;3.73;;;;;;;-141.97;40.67;47459.50;4950206;28;20193;-85
2022/10/07 08:01:14;;;;;;;10.30;3.73;;;;;;;-141.97;40.05;47492.16;4950395;28;20189;-85
2022/10/07 08:03:42;;;;;;;5.63;3.20;;;;;;;-141.97;39.63;47572.91;4949611;28;20184;-84
2022/10/07 08:06:09;;;;;;;12.63;3.47;;;;;;;-141.97;39.65;47484.47;4948434;29;20188;-85
2022/10/07 08:08:35;;;;;;;6.30;3.77;;;;;;;-141.97;39.48;47503.69;4950018;28;20212;-85
2022/10/07 08:11:13;;;;;;;4.93;3.47;;;;;;;-141.97;38.38;47496.00;4949650;28;20984;-86
2022/10/07 08:13:40;;;;;;;4.53;3.10;;;;;;;-141.97;38.50;47480.63;4957658;28;20184;-86
2022/10/07 08:16:20;;;;;;;5.27;3.13;;;;;;;-141.97;37.99;47467.19;4960512;28;20657;-82
2022/10/07 08:18:48;;;;;;;4.47;3.17;;;;;;;-141.97;37.97;47496.00;4968915;28;20183;-83
2022/10/07 08:21:17;;;;;;;5.33;3.50;;;;;;;-141.97;37.28;47492.16;4959933;28;20312;-84
2022/10/07 08:23:43;;;;;;;5.03;3.30;;;;;;;-141.97;37.26;47496.00;4969075;28;20197;-83
2022/10/07 08:26:09;;;;;;;6.27;3.30;;;;;;;-141.97;36.99;47463.34;4956237;28;20195;-84
2022/10/07 08:28:36;;;;;;;4.97;2.90;;;;;;;-141.97;36.31;47476.78;4952214;28;20212;-86
2022/10/07 08:31:04;;;;;;;4.60;3.10;;;;;;;-141.97;37.04;47465.25;4951061;28;20268;-85
2022/10/07 08:33:39;;;;;;;3.90;2.70;;;;;;;-141.97;36.31;47471.03;4949587;28;20547;-85
2022/10/07 08:36:06;;;;;;;4.67;3.00;;;;;;;-141.97;35.82;47263.47;4950105;28;20246;-84
2022/10/07 08:38:35;;;;;;;4.17;2.80;;;;;;;-141.97;35.43;47465.25;4950481;28;20264;-83
2022/10/07 08:41:32;;;;;;;3.43;2.60;;;;;;;-141.97;35.71;47488.31;4950616;28;20184;-85
2022/10/07 08:44:16;;;;;;;3.40;2.57;;;;;;;-141.97;36.54;47471.03;4949183;29;20193;-85
2022/10/07 08:46:54;;;;;;;3.93;2.90;;;;;;;-141.97;36.12;47507.53;4950164;28;20198;-83
2022/10/07 08:49:36;;;;;;;5.53;2.60;;;;;;;-141.97;35.99;47442.19;4950688;28;20216;-84
2022/10/07 08:52:25;;;;;;;4.10;2.57;;;;;;;-141.97;34.91;47376.84;4948928;28;20674;-84
2022/10/07 08:54:51;;;;;;;4.67;2.63;;;;;;;-141.97;34.44;47442.19;4950259;28;20239;-84
2022/10/07 08:57:32;;;;;;;3.77;2.60;;;;;;;-141.97;33.70;47494.09;4949428;28;20192;-82
2022/10/07 09:00:02;;;;;;;3.90;2.50;;;;;;;-141.97;33.21;47374.94;4950121;28;20251;-85
2022/10/07 09:02:38;;;;;;;3.33;2.30;;;;;;;-141.97;32.92;47446.03;4948461;28;20254;-85
2022/10/07 09:05:32;;;;;;;3.00;2.40;;;;;;;-141.97;32.35;47413.38;4949028;28;20203;-85
2022/10/07 09:08:03;;;;;;;3.57;2.50;;;;;;;-141.97;32.60;47461.41;4948141;28;21510;-84
2022/10/07 09:10:37;;;;;;;3.73;2.50;;;;;;;-141.97;32.42;47426.81;4948341;28;20680;-83
2022/10/07 09:13:12;;;;;;;3.37;2.50;;;;;;;-141.97;32.37;47565.22;4946662;28;20195;-85
2022/10/07 09:15:52;;;;;;;3.60;2.40;;;;;;;-141.97;32.92;47453.72;4950848;28;20192;-85
2022/10/07 09:18:25;;;;;;;3.53;2.30;;;;;;;-141.97;32.41;47472.94;4952495;28;20188;-84
2022/10/07 09:20:55;;;;;;;3.40;2.30;;;;;;;-141.97;32.21;47449.88;4942618;28;20211;-83
2022/10/07 09:23:29;;;;;;;5.17;2.50;;;;;;;-141.97;31.42;47422.97;4952236;28;20185;-83
2022/10/07 09:25:54;;;;;;;3.20;2.60;;;;;;;-141.97;31.58;47451.81;4953931;28;20172;-85
2022/10/07 09:28:28;;;;;;;3.87;2.20;;;;;;;-141.97;32.19;47440.28;4955308;28;20215;-83
2022/10/07 09:30:54;;;;;;;2.83;2.20;;;;;;;-141.97;31.99;47440.28;4959641;28;20185;-82
2022/10/07 09:33:23;;;;;;;2.90;2.30;;;;;;;-141.97;31.66;47382.63;4956849;28;21058;-83
2022/10/07 09:36:06;;;;;;;3.20;2.40;;;;;;;-141.97;31.33;47461.41;4954359;28;20184;-83
2022/10/07 09:38:38;;;;;;;4.27;2.50;;;;;;;-141.97;31.09;47447.97;4952983;28;20562;-83
2022/10/07 09:41:22;;;;;;;3.87;2.60;;;;;;;-141.97;30.95;47430.66;4952086;29;20711;-83
2022/10/07 09:44:04;;;;;;;2.83;2.20;;;;;;;-141.97;31.20;47388.38;4951849;28;20184;-84
2022/10/07 09:46:49;;;;;;;2.97;2.10;;;;;;;-141.97;30.71;47432.59;4953338;28;20184;-84
2022/10/07 09:49:27;;;;;;;3.10;2.20;;;;;;;-141.97;30.54;47415.28;4971674;28;20941;-84
2022/10/07 09:52:01;;;;;;;3.27;2.10;;;;;;;-141.97;30.17;47419.13;4970129;28;20192;-81
2022/10/07 09:54:28;;;;;;;4.73;2.60;;;;;;;-141.97;29.84;47409.53;4971759;28;20225;-82
2022/10/07 09:56:56;;;;;;;2.60;2.10;;;;;;;-141.97;30.15;47407.59;4963026;28;20193;-83
2022/10/07 09:59:28;;;;;;;2.70;2.17;;;;;;;-141.97;30.10;47411.44;4951528;29;20282;-83
2022/10/07 10:02:01;;;;;;;4.53;2.30;;;;;;;-141.97;29.28;47405.69;4951736;28;20189;-83
2022/10/07 10:04:36;;;;;;;3.03;2.10;;;;;;;-141.97;30.14;47403.75;4951734;28;20200;-84
2022/10/07 10:07:24;;;;;;;3.83;2.27;;;;;;;-141.97;30.46;47438.34;4951727;28;20215;-84
2022/10/07 10:09:52;;;;;;;2.70;2.20;;;;;;;-141.97;30.20;47413.38;4951740;28;20219;-83
2022/10/07 10:12:18;;;;;;;2.50;2.00;;;;;;;-141.97;30.16;47419.13;4951569;28;20184;-84
2022/10/07 10:15:00;;;;;;;3.30;2.00;;;;;;;-141.97;29.69;47424.91;4951823;28;20247;-84
2022/10/07 10:17:25;;;;;;;3.23;2.33;;;;;;;-141.97;29.68;47415.28;4941744;29;20211;-84
2022/10/07 10:19:51;;;;;;;2.50;2.10;;;;;;;-141.97;30.20;47615.19;4951828;28;20216;-85
2022/10/07 10:22:29;;;;;;;3.93;2.30;;;;;;;-141.97;30.09;47415.28;4943681;28;21039;-84
2022/10/07 10:28:13;;;;;;;3.73;2.30;;;;;;;-141.97;30.28;47436.44;4951453;28;20195;-85
2022/10/07 10:30:51;;;;;;;2.87;2.10;;;;;;;-141.97;29.96;47388.38;4951890;28;20271;-84
2022/10/07 10:33:58;;;;;;;3.23;2.33;;;;;;;-141.97;30.00;47496.00;4954400;28;20697;-85
2022/10/07 10:36:26;;;;;;;3.03;2.07;;;;;;;-141.97;30.11;47438.34;4895672;29;20228;-84
2022/10/07 10:39:22;;;;;;;2.83;2.10;;;;;;;-141.97;29.53;47424.91;4911799;29;20186;-85
2022/10/07 10:41:59;;;;;;;3.80;2.20;;;;;;;-141.97;29.85;47398.00;4913363;29;20222;-85
2022/10/07 10:44:42;;;;;;;2.80;2.30;;;;;;;-141.97;29.63;47384.53;4914227;29;20217;-85
2022/10/07 10:47:27;;;;;;;3.40;2.10;;;;;;;-141.97;29.70;47415.28;4914491;29;20209;-86
2022/10/07 10:50:22;;;;;;;4.50;2.13;;;;;;;-141.97;29.44;47422.97;4910532;29;20698;-84
2022/10/07 10:53:09;;;;;;;3.67;2.10;;;;;;;-141.97;29.36;47403.75;4914519;29;20293;-85
2022/10/07 10:56:00;;;;;;;2.67;2.30;;;;;;;-141.97;29.33;47388.38;4915305;29;20225;-86
2022/10/07 10:58:42;;;;;;;3.17;2.17;;;;;;;-141.97;29.23;47403.75;4897587;29;20212;-85
2022/10/07 11:01:38;;;;;;;2.60;1.93;;;;;;;-141.97;29.62;47422.97;4897160;29;20273;-86
2022/10/07 11:04:24;;;;;;;2.50;2.20;;;;;;;-141.97;29.42;47446.03;4914615;29;20288;-85
2022/10/07 11:07:08;;;;;;;3.37;2.43;;;;;;;-141.97;29.88;47307.66;4916448;29;20337;-87
2022/10/07 11:09:41;;;;;;;2.67;2.13;;;;;;;-141.97;29.27;47457.56;4913454;29;20218;-84
2022/10/07 11:12:20;;;;;;;3.10;2.27;;;;;;;-141.97;29.88;47384.53;4921964;29;21165;-85
2022/10/07 11:14:50;;;;;;;4.13;2.50;;;;;;;-141.97;29.45;47407.59;4953188;29;20191;-85
2022/10/07 11:17:20;;;;;;;3.77;2.17;;;;;;;-141.97;29.56;47438.34;4932356;29;20236;-84
2022/10/07 11:19:58;;;;;;;4.00;2.17;;;;;;;-141.97;29.13;47434.50;4951075;28;20267;-85
2022/10/07 11:22:36;;;;;;;4.20;2.40;;;;;;;-141.97;29.75;47422.97;4943658;28;20247;-84
2022/10/07 11:25:14;;;;;;;14.13;8.07;;;;;;;-141.97;29.39;47422.97;4952873;28;20243;-85
2022/10/07 11:27:44;;;;;;;4.50;3.13;;;;;;;-141.97;29.34;47351.88;4950865;28;20617;-85
2022/10/07 11:30:21;;;;;;;4.00;2.27;;;;;;;-141.97;28.99;47371.09;4955582;28;20197;-85
2022/10/07 11:33:00;;;;;;;2.73;2.00;;;;;;;-141.97;29.43;47428.75;4956264;29;20191;-85
2022/10/07 11:35:34;;;;;;;2.93;2.10;;;;;;;-141.97;30.05;47415.28;4954712;28;20347;-84